sensor_id;sensor_type;location;lat;lon;timestamp;P1;durP1;ratioP1;P2;durP2;ratioP2
64667;SDS011;51077;42.716;23.344;2023-04-25T03:23:39;5.40;;;3.30;;
64667;SDS011;51077;42.716;23.344;2023-04-25T03:26:04;5.00;;;3.10;;
64667;SDS011;51077;42.716;23.344;2023-04-25T03:28:30;5.70;;;3.47;;
64667;SDS011;51077;42.716;23.344;2023-04-25T03:30:55;7.07;;;4.10;;
64667;SDS011;51077;42.716;23.344;2023-04-25T03:33:21;8.83;;;4.50;;
64667;SDS011;51077;42.716;23.344;2023-04-25T03:35:47;6.35;;;4.10;;
64667;SDS011;51077;42.716;23.344;2023-04-25T03:38:12;6.13;;;4.33;;
64667;SDS011;51077;42.716;23.344;2023-04-25T03:40:40;6.37;;;3.83;;
64667;SDS011;51077;42.716;23.344;2023-04-25T03:43:05;5.40;;;4.00;;
64667;SDS011;51077;42.716;23.344;2023-04-25T03:45:30;5.23;;;3.33;;
64667;SDS011;51077;42.716;23.344;2023-04-25T03:47:56;5.90;;;3.63;;
64667;SDS011;51077;42.716;23.344;2023-04-25T03:50:21;9.57;;;3.10;;
64667;SDS011;51077;42.716;23.344;2023-04-25T03:52:47;4.90;;;3.40;;
64667;SDS011;51077;42.716;23.344;2023-04-25T03:55:12;5.63;;;3.97;;
64667;SDS011;51077;42.716;23.344;2023-04-25T03:57:37;5.87;;;3.87;;
64667;SDS011;51077;42.716;23.344;2023-04-25T04:00:03;5.80;;;3.40;;
64667;SDS011;51077;42.716;23.344;2023-04-25T04:02:29;5.68;;;4.13;;
64667;SDS011;51077;42.716;23.344;2023-04-25T04:04:55;6.63;;;4.17;;
64667;SDS011;51077;42.716;23.344;2023-04-25T04:07:21;6.10;;;4.07;;
64667;SDS011;51077;42.716;23.344;2023-04-25T04:09:47;4.60;;;3.50;;
64667;SDS011;51077;42.716;23.344;2023-04-25T04:12:12;5.40;;;3.80;;
64667;SDS011;51077;42.716;23.344;2023-04-25T04:14:38;6.07;;;3.40;;
64667;SDS011;51077;42.716;23.344;2023-04-25T04:17:03;5.47;;;3.80;;
64667;SDS011;51077;42.716;23.344;2023-04-25T04:19:28;5.37;;;3.70;;
64667;SDS011;51077;42.716;23.344;2023-04-25T04:21:54;5.63;;;4.07;;
64667;SDS011;51077;42.716;23.344;2023-04-25T04:24:19;7.83;;;4.67;;
64667;SDS011;51077;42.716;23.344;2023-04-25T04:26:44;6.30;;;4.23;;
64667;SDS011;51077;42.716;23.344;2023-04-25T04:29:10;5.73;;;3.77;;
64667;SDS011;51077;42.716;23.344;2023-04-25T04:31:36;6.25;;;4.28;;
64667;SDS011;51077;42.716;23.344;2023-04-25T04:34:02;5.97;;;4.40;;
64667;SDS011;51077;42.716;23.344;2023-04-25T04:36:28;5.00;;;3.83;;
64667;SDS011;51077;42.716;23.344;2023-04-25T04:38:54;5.17;;;3.97;;
64667;SDS011;51077;42.716;23.344;2023-04-25T04:41:21;6.53;;;3.95;;
64667;SDS011;51077;42.716;23.344;2023-04-25T04:43:47;6.00;;;3.73;;
64667;SDS011;51077;42.716;23.344;2023-04-25T04:46:12;6.50;;;4.20;;
64667;SDS011;51077;42.716;23.344;2023-04-25T04:48:38;6.93;;;3.87;;
64667;SDS011;51077;42.716;23.344;2023-04-25T04:51:05;7.18;;;4.22;;
64667;SDS011;51077;42.716;23.344;2023-04-25T04:53:30;8.38;;;5.07;;
64667;SDS011;51077;42.716;23.344;2023-04-25T04:55:56;7.03;;;4.73;;
64667;SDS011;51077;42.716;23.344;2023-04-25T04:58:21;7.47;;;4.10;;
64667;SDS011;51077;42.716;23.344;2023-04-25T05:00:47;6.97;;;3.87;;
64667;SDS011;51077;42.716;23.344;2023-04-25T05:03:12;7.37;;;4.03;;
64667;SDS011;51077;42.716;23.344;2023-04-25T05:05:38;7.87;;;4.50;;
64667;SDS011;51077;42.716;23.344;2023-04-25T05:08:05;5.90;;;3.60;;
64667;SDS011;51077;42.716;23.344;2023-04-25T05:10:31;5.43;;;3.60;;
64667;SDS011;51077;42.716;23.344;2023-04-25T05:12:56;5.90;;;3.90;;
64667;SDS011;51077;42.716;23.344;2023-04-25T05:15:22;6.23;;;3.57;;
64667;SDS011;51077;42.716;23.344;2023-04-25T05:17:47;5.30;;;3.50;;
64667;SDS011;51077;42.716;23.344;2023-04-25T05:20:12;7.17;;;3.97;;
64667;SDS011;51077;42.716;23.344;2023-04-25T05:22:39;5.78;;;4.05;;
64667;SDS011;51077;42.716;23.344;2023-04-25T05:25:06;6.15;;;4.10;;
64667;SDS011;51077;42.716;23.344;2023-04-25T05:27:32;6.20;;;4.07;;
64667;SDS011;51077;42.716;23.344;2023-04-25T05:29:58;4.67;;;3.33;;
64667;SDS011;51077;42.716;23.344;2023-04-25T05:32:23;6.03;;;3.57;;
64667;SDS011;51077;42.716;23.344;2023-04-25T05:34:49;5.03;;;3.60;;
64667;SDS011;51077;42.716;23.344;2023-04-25T05:37:16;5.55;;;3.63;;
64667;SDS011;51077;42.716;23.344;2023-04-25T05:39:42;8.53;;;3.63;;
64667;SDS011;51077;42.716;23.344;2023-04-25T05:42:07;5.67;;;3.43;;
64667;SDS011;51077;42.716;23.344;2023-04-25T05:44:33;5.87;;;3.67;;
64667;SDS011;51077;42.716;23.344;2023-04-25T05:46:58;6.03;;;3.23;;
64667;SDS011;51077;42.716;23.344;2023-04-25T05:49:24;4.20;;;2.90;;
64667;SDS011;51077;42.716;23.344;2023-04-25T05:51:49;5.23;;;3.23;;
64667;SDS011;51077;42.716;23.344;2023-04-25T05:54:15;4.93;;;3.10;;
64667;SDS011;51077;42.716;23.344;2023-04-25T05:56:40;6.50;;;3.30;;
64667;SDS011;51077;42.716;23.344;2023-04-25T05:59:05;5.10;;;3.10;;
64667;SDS011;51077;42.716;23.344;2023-04-25T06:01:31;5.60;;;3.13;;
64667;SDS011;51077;42.716;23.344;2023-04-25T06:03:56;4.33;;;2.67;;
64667;SDS011;51077;42.716;23.344;2023-04-25T06:06:22;6.43;;;3.10;;
64667;SDS011;51077;42.716;23.344;2023-04-25T06:08:47;8.33;;;2.67;;
64667;SDS011;51077;42.716;23.344;2023-04-25T06:11:12;4.53;;;2.80;;
64667;SDS011;51077;42.716;23.344;2023-04-25T06:13:38;8.00;;;2.97;;
64667;SDS011;51077;42.716;23.344;2023-04-25T06:16:03;5.87;;;2.63;;
64667;SDS011;51077;42.716;23.344;2023-04-25T06:18:29;7.63;;;2.70;;
64667;SDS011;51077;42.716;23.344;2023-04-25T06:20:55;9.90;;;3.37;;
64667;SDS011;51077;42.716;23.344;2023-04-25T06:23:20;6.30;;;2.93;;
64667;SDS011;51077;42.716;23.344;2023-04-25T06:25:46;6.67;;;3.37;;
64667;SDS011;51077;42.716;23.344;2023-04-25T06:28:11;6.53;;;3.00;;
64667;SDS011;51077;42.716;23.344;2023-04-25T06:30:37;7.00;;;2.90;;
64667;SDS011;51077;42.716;23.344;2023-04-25T06:33:02;7.10;;;3.10;;
64667;SDS011;51077;42.716;23.344;2023-04-25T06:35:27;6.63;;;3.97;;
64667;SDS011;51077;42.716;23.344;2023-04-25T06:37:53;5.03;;;3.03;;
64667;SDS011;51077;42.716;23.344;2023-04-25T06:40:18;8.07;;;3.67;;
64667;SDS011;51077;42.716;23.344;2023-04-25T06:42:44;6.00;;;3.40;;
64667;SDS011;51077;42.716;23.344;2023-04-25T06:45:09;6.10;;;3.07;;
64667;SDS011;51077;42.716;23.344;2023-04-25T06:47:35;6.43;;;3.47;;
64667;SDS011;51077;42.716;23.344;2023-04-25T06:50:00;9.40;;;3.00;;
64667;SDS011;51077;42.716;23.344;2023-04-25T06:52:26;4.67;;;3.03;;
64667;SDS011;51077;42.716;23.344;2023-04-25T06:54:51;4.83;;;3.30;;
64667;SDS011;51077;42.716;23.344;2023-04-25T06:57:16;5.30;;;3.10;;
64667;SDS011;51077;42.716;23.344;2023-04-25T06:59:42;5.97;;;3.60;;
64667;SDS011;51077;42.716;23.344;2023-04-25T07:02:07;7.80;;;3.50;;
64667;SDS011;51077;42.716;23.344;2023-04-25T07:04:32;7.73;;;3.43;;
64667;SDS011;51077;42.716;23.344;2023-04-25T07:06:58;6.47;;;3.33;;
64667;SDS011;51077;42.716;23.344;2023-04-25T07:09:25;7.75;;;3.30;;
64667;SDS011;51077;42.716;23.344;2023-04-25T07:11:51;7.87;;;3.40;;
64667;SDS011;51077;42.716;23.344;2023-04-25T07:14:16;5.93;;;3.10;;
64667;SDS011;51077;42.716;23.344;2023-04-25T07:16:41;6.40;;;3.60;;
64667;SDS011;51077;42.716;23.344;2023-04-25T07:19:07;6.73;;;3.33;;
64667;SDS011;51077;42.716;23.344;2023-04-25T07:21:32;6.27;;;3.47;;
64667;SDS011;51077;42.716;23.344;2023-04-25T07:23:58;8.87;;;3.47;;
64667;SDS011;51077;42.716;23.344;2023-04-25T07:26:23;6.67;;;3.40;;
64667;SDS011;51077;42.716;23.344;2023-04-25T07:28:48;6.43;;;3.30;;
64667;SDS011;51077;42.716;23.344;2023-04-25T07:31:16;5.65;;;3.30;;
64667;SDS011;51077;42.716;23.344;2023-04-25T07:33:43;6.47;;;3.60;;
64667;SDS011;51077;42.716;23.344;2023-04-25T07:36:10;5.07;;;3.50;;
64667;SDS011;51077;42.716;23.344;2023-04-25T07:38:36;4.73;;;3.10;;
64667;SDS011;51077;42.716;23.344;2023-04-25T07:41:01;5.93;;;3.23;;
64667;SDS011;51077;42.716;23.344;2023-04-25T07:43:26;5.20;;;2.70;;
64667;SDS011;51077;42.716;23.344;2023-04-25T07:45:52;6.60;;;3.13;;
64667;SDS011;51077;42.716;23.344;2023-04-25T07:48:17;4.73;;;3.20;;
64667;SDS011;51077;42.716;23.344;2023-04-25T07:50:43;8.95;;;3.25;;
64667;SDS011;51077;42.716;23.344;2023-04-25T07:53:09;5.87;;;3.90;;
64667;SDS011;51077;42.716;23.344;2023-04-25T07:55:35;5.23;;;3.07;;
64667;SDS011;51077;42.716;23.344;2023-04-25T07:58:01;6.05;;;3.63;;
64667;SDS011;51077;42.716;23.344;2023-04-25T08:00:28;6.27;;;3.63;;
64667;SDS011;51077;42.716;23.344;2023-04-25T08:02:53;5.90;;;3.70;;
64667;SDS011;51077;42.716;23.344;2023-04-25T08:05:19;6.43;;;3.27;;
64667;SDS011;51077;42.716;23.344;2023-04-25T08:07:44;5.40;;;3.30;;
64667;SDS011;51077;42.716;23.344;2023-04-25T08:10:10;6.87;;;3.43;;
64667;SDS011;51077;42.716;23.344;2023-04-25T08:12:35;7.37;;;3.73;;
64667;SDS011;51077;42.716;23.344;2023-04-25T08:15:01;7.40;;;3.40;;
64667;SDS011;51077;42.716;23.344;2023-04-25T08:17:26;6.17;;;3.40;;
64667;SDS011;51077;42.716;23.344;2023-04-25T08:19:52;5.77;;;3.20;;
64667;SDS011;51077;42.716;23.344;2023-04-25T08:22:18;7.47;;;3.17;;
64667;SDS011;51077;42.716;23.344;2023-04-25T08:24:43;5.53;;;3.10;;
64667;SDS011;51077;42.716;23.344;2023-04-25T08:27:09;5.33;;;3.83;;
64667;SDS011;51077;42.716;23.344;2023-04-25T08:29:36;6.07;;;3.97;;
64667;SDS011;51077;42.716;23.344;2023-04-25T08:32:01;5.87;;;3.30;;
64667;SDS011;51077;42.716;23.344;2023-04-25T08:34:26;6.70;;;3.23;;
64667;SDS011;51077;42.716;23.344;2023-04-25T08:36:52;8.00;;;3.50;;
64667;SDS011;51077;42.716;23.344;2023-04-25T08:39:17;5.67;;;3.70;;
64667;SDS011;51077;42.716;23.344;2023-04-25T08:41:43;5.60;;;3.57;;
64667;SDS011;51077;42.716;23.344;2023-04-25T08:44:10;7.40;;;3.92;;
64667;SDS011;51077;42.716;23.344;2023-04-25T08:46:37;10.30;;;3.97;;
64667;SDS011;51077;42.716;23.344;2023-04-25T08:49:03;7.93;;;3.83;;
64667;SDS011;51077;42.716;23.344;2023-04-25T08:51:30;8.30;;;4.27;;
64667;SDS011;51077;42.716;23.344;2023-04-25T08:53:58;6.65;;;4.03;;
64667;SDS011;51077;42.716;23.344;2023-04-25T08:56:36;6.45;;;3.78;;
64667;SDS011;51077;42.716;23.344;2023-04-25T08:59:06;8.55;;;3.80;;
64667;SDS011;51077;42.716;23.344;2023-04-25T09:01:33;6.63;;;3.85;;
64667;SDS011;51077;42.716;23.344;2023-04-25T09:04:00;7.97;;;4.00;;
64667;SDS011;51077;42.716;23.344;2023-04-25T09:06:25;7.20;;;3.43;;
64667;SDS011;51077;42.716;23.344;2023-04-25T09:08:52;5.55;;;3.30;;
64667;SDS011;51077;42.716;23.344;2023-04-25T09:11:18;4.82;;;3.50;;
64667;SDS011;51077;42.716;23.344;2023-04-25T09:13:44;5.53;;;3.27;;
64667;SDS011;51077;42.716;23.344;2023-04-25T09:16:10;6.00;;;3.63;;
64667;SDS011;51077;42.716;23.344;2023-04-25T09:18:36;9.50;;;3.47;;
64667;SDS011;51077;42.716;23.344;2023-04-25T09:21:11;7.20;;;3.77;;
64667;SDS011;51077;42.716;23.344;2023-04-25T09:23:44;5.00;;;3.30;;
64667;SDS011;51077;42.716;23.344;2023-04-25T09:26:15;5.35;;;3.30;;
64667;SDS011;51077;42.716;23.344;2023-04-25T09:28:45;5.95;;;3.65;;
64667;SDS011;51077;42.716;23.344;2023-04-25T09:31:20;5.18;;;3.50;;
64667;SDS011;51077;42.716;23.344;2023-04-25T09:36:12;5.60;;;3.17;;
64667;SDS011;51077;42.716;23.344;2023-04-25T09:38:42;5.47;;;3.47;;
64667;SDS011;51077;42.716;23.344;2023-04-25T09:41:09;5.70;;;3.35;;
64667;SDS011;51077;42.716;23.344;2023-04-25T09:43:35;5.38;;;3.38;;
64667;SDS011;51077;42.716;23.344;2023-04-25T09:46:01;5.47;;;3.05;;
64667;SDS011;51077;42.716;23.344;2023-04-25T09:48:27;4.47;;;2.97;;
64667;SDS011;51077;42.716;23.344;2023-04-25T09:53:28;5.82;;;3.47;;
64667;SDS011;51077;42.716;23.344;2023-04-25T09:55:53;4.30;;;3.03;;
64667;SDS011;51077;42.716;23.344;2023-04-25T09:58:21;5.28;;;3.40;;
64667;SDS011;51077;42.716;23.344;2023-04-25T10:00:48;5.28;;;3.00;;
64667;SDS011;51077;42.716;23.344;2023-04-25T10:03:14;3.95;;;2.67;;
64667;SDS011;51077;42.716;23.344;2023-04-25T10:05:42;7.00;;;3.28;;
64667;SDS011;51077;42.716;23.344;2023-04-25T10:08:08;6.72;;;3.50;;
64667;SDS011;51077;42.716;23.344;2023-04-25T10:10:35;5.25;;;2.80;;
64667;SDS011;51077;42.716;23.344;2023-04-25T10:13:03;4.18;;;2.25;;
64667;SDS011;51077;42.716;23.344;2023-04-25T10:15:31;4.60;;;2.47;;
64667;SDS011;51077;42.716;23.344;2023-04-25T10:18:00;4.32;;;2.55;;
64667;SDS011;51077;42.716;23.344;2023-04-25T10:20:26;6.10;;;2.55;;
64667;SDS011;51077;42.716;23.344;2023-04-25T10:22:51;4.63;;;2.43;;
64667;SDS011;51077;42.716;23.344;2023-04-25T10:25:21;4.57;;;2.65;;
64667;SDS011;51077;42.716;23.344;2023-04-25T10:27:49;4.53;;;2.72;;
64667;SDS011;51077;42.716;23.344;2023-04-25T10:30:16;3.67;;;1.85;;
64667;SDS011;51077;42.716;23.344;2023-04-25T10:32:43;4.63;;;2.17;;
64667;SDS011;51077;42.716;23.344;2023-04-25T10:35:10;4.78;;;1.92;;
64667;SDS011;51077;42.716;23.344;2023-04-25T10:37:37;4.70;;;1.80;;
64667;SDS011;51077;42.716;23.344;2023-04-25T10:40:09;4.33;;;1.90;;
64667;SDS011;51077;42.716;23.344;2023-04-25T10:42:35;3.97;;;1.85;;
64667;SDS011;51077;42.716;23.344;2023-04-25T10:45:06;3.50;;;1.63;;
64667;SDS011;51077;42.716;23.344;2023-04-25T10:47:36;3.05;;;1.60;;
64667;SDS011;51077;42.716;23.344;2023-04-25T10:50:08;5.45;;;2.10;;
64667;SDS011;51077;42.716;23.344;2023-04-25T10:52:34;4.78;;;1.60;;
64667;SDS011;51077;42.716;23.344;2023-04-25T10:54:59;3.87;;;1.60;;
64667;SDS011;51077;42.716;23.344;2023-04-25T11:00:16;4.22;;;1.40;;
64667;SDS011;51077;42.716;23.344;2023-04-25T11:02:44;3.65;;;1.30;;
64667;SDS011;51077;42.716;23.344;2023-04-25T11:05:34;3.20;;;1.40;;
64667;SDS011;51077;42.716;23.344;2023-04-25T11:08:01;3.13;;;1.45;;
64667;SDS011;51077;42.716;23.344;2023-04-25T11:10:28;3.13;;;1.05;;
64667;SDS011;51077;42.716;23.344;2023-04-25T11:12:56;2.95;;;1.50;;
64667;SDS011;51077;42.716;23.344;2023-04-25T11:15:23;6.20;;;1.50;;
64667;SDS011;51077;42.716;23.344;2023-04-25T11:17:50;2.90;;;1.30;;
64667;SDS011;51077;42.716;23.344;2023-04-25T11:20:17;2.67;;;0.98;;
64667;SDS011;51077;42.716;23.344;2023-04-25T11:22:44;4.70;;;1.27;;
64667;SDS011;51077;42.716;23.344;2023-04-25T11:25:11;3.35;;;1.27;;
64667;SDS011;51077;42.716;23.344;2023-04-25T11:27:59;2.55;;;1.10;;
64667;SDS011;51077;42.716;23.344;2023-04-25T11:30:26;2.60;;;1.02;;
64667;SDS011;51077;42.716;23.344;2023-04-25T11:32:53;2.05;;;0.90;;
64667;SDS011;51077;42.716;23.344;2023-04-25T11:35:19;2.78;;;1.00;;
64667;SDS011;51077;42.716;23.344;2023-04-25T11:37:47;3.15;;;1.15;;
64667;SDS011;51077;42.716;23.344;2023-04-25T11:40:13;4.00;;;1.10;;
64667;SDS011;51077;42.716;23.344;2023-04-25T11:42:39;2.87;;;0.97;;
64667;SDS011;51077;42.716;23.344;2023-04-25T11:45:09;1.92;;;0.80;;
64667;SDS011;51077;42.716;23.344;2023-04-25T11:47:34;1.80;;;0.60;;
64667;SDS011;51077;42.716;23.344;2023-04-25T11:50:01;1.73;;;0.70;;
64667;SDS011;51077;42.716;23.344;2023-04-25T11:52:38;6.15;;;0.98;;
64667;SDS011;51077;42.716;23.344;2023-04-25T11:55:13;4.53;;;1.05;;
64667;SDS011;51077;42.716;23.344;2023-04-25T11:57:41;1.95;;;0.60;;
64667;SDS011;51077;42.716;23.344;2023-04-25T12:00:14;2.55;;;0.70;;
64667;SDS011;51077;42.716;23.344;2023-04-25T12:02:54;4.80;;;0.63;;
64667;SDS011;51077;42.716;23.344;2023-04-25T12:05:26;8.52;;;1.05;;
64667;SDS011;51077;42.716;23.344;2023-04-25T12:07:53;4.22;;;0.70;;
64667;SDS011;51077;42.716;23.344;2023-04-25T12:10:23;3.07;;;0.73;;
64667;SDS011;51077;42.716;23.344;2023-04-25T12:12:50;2.15;;;0.60;;
64667;SDS011;51077;42.716;23.344;2023-04-25T12:15:22;2.17;;;0.80;;
64667;SDS011;51077;42.716;23.344;2023-04-25T12:17:51;2.08;;;0.88;;
64667;SDS011;51077;42.716;23.344;2023-04-25T12:20:23;2.13;;;0.70;;
64667;SDS011;51077;42.716;23.344;2023-04-25T12:22:51;1.48;;;0.70;;
64667;SDS011;51077;42.716;23.344;2023-04-25T12:28:11;2.92;;;1.48;;
64667;SDS011;51077;42.716;23.344;2023-04-25T12:33:20;3.92;;;1.95;;
64667;SDS011;51077;42.716;23.344;2023-04-25T12:35:46;4.78;;;1.95;;
64667;SDS011;51077;42.716;23.344;2023-04-25T12:38:20;3.73;;;2.07;;
64667;SDS011;51077;42.716;23.344;2023-04-25T12:40:55;4.13;;;1.88;;
64667;SDS011;51077;42.716;23.344;2023-04-25T12:43:22;5.45;;;2.78;;
64667;SDS011;51077;42.716;23.344;2023-04-25T12:45:48;5.60;;;2.70;;
64667;SDS011;51077;42.716;23.344;2023-04-25T12:48:17;4.32;;;2.33;;
64667;SDS011;51077;42.716;23.344;2023-04-25T12:50:43;5.13;;;2.03;;
64667;SDS011;51077;42.716;23.344;2023-04-25T12:53:09;6.87;;;2.20;;
64667;SDS011;51077;42.716;23.344;2023-04-25T12:55:36;3.40;;;2.05;;
64667;SDS011;51077;42.716;23.344;2023-04-25T12:58:02;4.43;;;1.97;;
64667;SDS011;51077;42.716;23.344;2023-04-25T13:00:28;4.57;;;1.65;;
64667;SDS011;51077;42.716;23.344;2023-04-25T13:02:54;4.95;;;1.77;;
64667;SDS011;51077;42.716;23.344;2023-04-25T13:05:19;3.77;;;1.23;;
64667;SDS011;51077;42.716;23.344;2023-04-25T13:07:45;3.73;;;1.17;;
64667;SDS011;51077;42.716;23.344;2023-04-25T13:10:10;3.00;;;1.43;;
64667;SDS011;51077;42.716;23.344;2023-04-25T13:12:36;3.53;;;1.27;;
64667;SDS011;51077;42.716;23.344;2023-04-25T13:15:01;2.40;;;1.20;;
64667;SDS011;51077;42.716;23.344;2023-04-25T13:17:27;3.83;;;1.20;;
64667;SDS011;51077;42.716;23.344;2023-04-25T13:19:52;3.17;;;1.00;;
64667;SDS011;51077;42.716;23.344;2023-04-25T13:22:18;3.33;;;1.60;;
64667;SDS011;51077;42.716;23.344;2023-04-25T13:24:45;3.70;;;1.27;;
64667;SDS011;51077;42.716;23.344;2023-04-25T13:27:10;3.00;;;1.67;;
64667;SDS011;51077;42.716;23.344;2023-04-25T13:29:36;3.53;;;1.67;;
64667;SDS011;51077;42.716;23.344;2023-04-25T13:32:08;4.20;;;1.90;;
64667;SDS011;51077;42.716;23.344;2023-04-25T13:34:34;2.80;;;1.40;;
64667;SDS011;51077;42.716;23.344;2023-04-25T13:37:00;2.80;;;1.70;;
64667;SDS011;51077;42.716;23.344;2023-04-25T13:39:25;3.23;;;1.40;;
64667;SDS011;51077;42.716;23.344;2023-04-25T13:41:50;4.13;;;1.80;;
64667;SDS011;51077;42.716;23.344;2023-04-25T13:44:16;3.07;;;1.47;;
64667;SDS011;51077;42.716;23.344;2023-04-25T13:46:41;4.97;;;1.37;;
64667;SDS011;51077;42.716;23.344;2023-04-25T13:49:07;3.93;;;1.40;;
64667;SDS011;51077;42.716;23.344;2023-04-25T13:51:32;2.73;;;1.33;;
64667;SDS011;51077;42.716;23.344;2023-04-25T13:53:57;3.37;;;1.33;;
64667;SDS011;51077;42.716;23.344;2023-04-25T13:56:23;3.67;;;1.40;;
64667;SDS011;51077;42.716;23.344;2023-04-25T13:58:49;5.40;;;1.57;;
64667;SDS011;51077;42.716;23.344;2023-04-25T14:01:16;4.53;;;1.65;;
64667;SDS011;51077;42.716;23.344;2023-04-25T14:03:41;4.53;;;1.67;;
64667;SDS011;51077;42.716;23.344;2023-04-25T14:06:07;4.53;;;1.50;;
64667;SDS011;51077;42.716;23.344;2023-04-25T14:08:33;4.15;;;1.77;;
64667;SDS011;51077;42.716;23.344;2023-04-25T14:10:59;3.10;;;1.80;;
64667;SDS011;51077;42.716;23.344;2023-04-25T14:13:24;3.73;;;1.87;;
64667;SDS011;51077;42.716;23.344;2023-04-25T14:15:49;4.30;;;1.60;;
64667;SDS011;51077;42.716;23.344;2023-04-25T14:18:15;3.60;;;1.90;;
64667;SDS011;51077;42.716;23.344;2023-04-25T14:20:40;2.90;;;1.57;;
64667;SDS011;51077;42.716;23.344;2023-04-25T14:23:06;3.53;;;1.53;;
64667;SDS011;51077;42.716;23.344;2023-04-25T14:25:31;4.23;;;1.70;;
64667;SDS011;51077;42.716;23.344;2023-04-25T14:27:57;4.33;;;1.60;;
64667;SDS011;51077;42.716;23.344;2023-04-25T14:30:22;6.97;;;3.30;;
64667;SDS011;51077;42.716;23.344;2023-04-25T14:32:51;11.83;;;4.17;;
64667;SDS011;51077;42.716;23.344;2023-04-25T14:35:16;6.45;;;3.28;;
64667;SDS011;51077;42.716;23.344;2023-04-25T14:37:42;7.25;;;3.58;;
64667;SDS011;51077;42.716;23.344;2023-04-25T14:40:08;6.93;;;3.00;;
64667;SDS011;51077;42.716;23.344;2023-04-25T14:42:35;6.35;;;2.72;;
64667;SDS011;51077;42.716;23.344;2023-04-25T14:45:02;4.65;;;2.33;;
64667;SDS011;51077;42.716;23.344;2023-04-25T14:47:28;4.93;;;2.40;;
64667;SDS011;51077;42.716;23.344;2023-04-25T14:49:54;4.32;;;1.70;;
64667;SDS011;51077;42.716;23.344;2023-04-25T14:52:20;4.72;;;2.20;;
64667;SDS011;51077;42.716;23.344;2023-04-25T14:54:46;4.97;;;1.80;;
64667;SDS011;51077;42.716;23.344;2023-04-25T14:57:12;3.00;;;1.52;;
64667;SDS011;51077;42.716;23.344;2023-04-25T14:59:38;4.63;;;1.90;;
64667;SDS011;51077;42.716;23.344;2023-04-25T15:02:03;4.00;;;1.60;;
64667;SDS011;51077;42.716;23.344;2023-04-25T15:04:29;3.55;;;1.38;;
64667;SDS011;51077;42.716;23.344;2023-04-25T15:06:55;3.57;;;1.60;;
64667;SDS011;51077;42.716;23.344;2023-04-25T15:09:20;4.27;;;1.43;;
64667;SDS011;51077;42.716;23.344;2023-04-25T15:11:49;4.78;;;1.45;;
64667;SDS011;51077;42.716;23.344;2023-04-25T15:14:15;4.82;;;1.83;;
64667;SDS011;51077;42.716;23.344;2023-04-25T15:16:42;2.25;;;1.10;;
64667;SDS011;51077;42.716;23.344;2023-04-25T15:19:10;3.43;;;1.07;;
64667;SDS011;51077;42.716;23.344;2023-04-25T15:21:35;2.65;;;1.20;;
64667;SDS011;51077;42.716;23.344;2023-04-25T15:24:01;2.67;;;1.17;;
64667;SDS011;51077;42.716;23.344;2023-04-25T15:26:26;2.57;;;1.30;;
64667;SDS011;51077;42.716;23.344;2023-04-25T15:28:52;2.73;;;1.20;;
64667;SDS011;51077;42.716;23.344;2023-04-25T15:31:18;2.73;;;1.30;;
64667;SDS011;51077;42.716;23.344;2023-04-25T15:33:47;3.90;;;1.40;;
64667;SDS011;51077;42.716;23.344;2023-04-25T15:36:12;3.65;;;1.48;;
64667;SDS011;51077;42.716;23.344;2023-04-25T15:38:38;4.13;;;1.87;;
64667;SDS011;51077;42.716;23.344;2023-04-25T15:41:04;3.97;;;1.70;;
64667;SDS011;51077;42.716;23.344;2023-04-25T15:43:32;4.10;;;1.90;;
64667;SDS011;51077;42.716;23.344;2023-04-25T15:46:00;4.63;;;1.88;;
64667;SDS011;51077;42.716;23.344;2023-04-25T15:48:26;3.40;;;1.60;;
64667;SDS011;51077;42.716;23.344;2023-04-25T15:50:51;4.10;;;2.10;;
64667;SDS011;51077;42.716;23.344;2023-04-25T15:53:16;3.93;;;2.07;;
64667;SDS011;51077;42.716;23.344;2023-04-25T15:55:42;6.10;;;2.20;;
64667;SDS011;51077;42.716;23.344;2023-04-25T15:58:08;5.72;;;1.83;;
64667;SDS011;51077;42.716;23.344;2023-04-25T16:00:34;5.70;;;2.33;;
64667;SDS011;51077;42.716;23.344;2023-04-25T16:03:01;4.07;;;1.95;;
64667;SDS011;51077;42.716;23.344;2023-04-25T16:05:28;6.95;;;2.25;;
64667;SDS011;51077;42.716;23.344;2023-04-25T16:07:53;5.23;;;2.57;;
64667;SDS011;51077;42.716;23.344;2023-04-25T16:10:19;4.87;;;1.90;;
64667;SDS011;51077;42.716;23.344;2023-04-25T16:12:45;6.50;;;2.53;;
64667;SDS011;51077;42.716;23.344;2023-04-25T16:15:12;3.47;;;2.13;;
64667;SDS011;51077;42.716;23.344;2023-04-25T16:17:38;4.07;;;2.03;;
64667;SDS011;51077;42.716;23.344;2023-04-25T16:20:04;4.27;;;2.00;;
64667;SDS011;51077;42.716;23.344;2023-04-25T16:22:34;4.43;;;2.25;;
64667;SDS011;51077;42.716;23.344;2023-04-25T16:25:01;13.88;;;6.90;;
64667;SDS011;51077;42.716;23.344;2023-04-25T16:27:27;9.98;;;4.88;;
64667;SDS011;51077;42.716;23.344;2023-04-25T16:29:52;9.77;;;5.20;;
64667;SDS011;51077;42.716;23.344;2023-04-25T16:32:18;9.70;;;5.07;;
64667;SDS011;51077;42.716;23.344;2023-04-25T16:34:43;9.30;;;4.53;;
64667;SDS011;51077;42.716;23.344;2023-04-25T16:37:09;8.17;;;4.57;;
64667;SDS011;51077;42.716;23.344;2023-04-25T16:39:35;8.27;;;3.75;;
64667;SDS011;51077;42.716;23.344;2023-04-25T16:42:00;7.75;;;3.70;;
64667;SDS011;51077;42.716;23.344;2023-04-25T16:44:26;8.70;;;3.70;;
64667;SDS011;51077;42.716;23.344;2023-04-25T16:46:51;6.63;;;3.70;;
64667;SDS011;51077;42.716;23.344;2023-04-25T16:49:17;9.07;;;4.10;;
64667;SDS011;51077;42.716;23.344;2023-04-25T16:51:42;7.70;;;4.40;;
64667;SDS011;51077;42.716;23.344;2023-04-25T16:54:10;22.35;;;12.50;;
64667;SDS011;51077;42.716;23.344;2023-04-25T16:56:36;21.27;;;10.20;;
64667;SDS011;51077;42.716;23.344;2023-04-25T16:59:01;20.17;;;9.70;;
64667;SDS011;51077;42.716;23.344;2023-04-25T17:01:26;16.77;;;9.10;;
64667;SDS011;51077;42.716;23.344;2023-04-25T17:03:52;15.37;;;8.10;;
64667;SDS011;51077;42.716;23.344;2023-04-25T17:06:17;15.33;;;8.37;;
64667;SDS011;51077;42.716;23.344;2023-04-25T17:08:42;13.70;;;6.83;;
64667;SDS011;51077;42.716;23.344;2023-04-25T17:11:08;14.67;;;7.97;;
64667;SDS011;51077;42.716;23.344;2023-04-25T17:13:34;11.45;;;6.30;;
64667;SDS011;51077;42.716;23.344;2023-04-25T17:16:01;14.05;;;6.30;;
64667;SDS011;51077;42.716;23.344;2023-04-25T17:18:27;11.77;;;6.20;;
64667;SDS011;51077;42.716;23.344;2023-04-25T17:20:52;13.07;;;6.43;;
64667;SDS011;51077;42.716;23.344;2023-04-25T17:23:18;17.02;;;7.85;;
64667;SDS011;51077;42.716;23.344;2023-04-25T17:25:44;21.77;;;9.90;;
64667;SDS011;51077;42.716;23.344;2023-04-25T17:28:12;18.42;;;9.88;;
64667;SDS011;51077;42.716;23.344;2023-04-25T17:30:38;17.53;;;8.30;;
64667;SDS011;51077;42.716;23.344;2023-04-25T17:33:04;16.05;;;8.38;;
64667;SDS011;51077;42.716;23.344;2023-04-25T17:35:30;16.45;;;7.70;;
64667;SDS011;51077;42.716;23.344;2023-04-25T17:37:58;14.60;;;7.55;;
64667;SDS011;51077;42.716;23.344;2023-04-25T17:40:24;12.30;;;7.27;;
64667;SDS011;51077;42.716;23.344;2023-04-25T17:42:50;14.95;;;7.00;;
64667;SDS011;51077;42.716;23.344;2023-04-25T17:45:16;11.80;;;6.67;;
64667;SDS011;51077;42.716;23.344;2023-04-25T17:47:44;11.30;;;6.20;;
64667;SDS011;51077;42.716;23.344;2023-04-25T17:50:09;11.98;;;6.25;;
64667;SDS011;51077;42.716;23.344;2023-04-25T17:52:36;10.77;;;5.80;;
64667;SDS011;51077;42.716;23.344;2023-04-25T17:55:03;8.88;;;4.95;;
64667;SDS011;51077;42.716;23.344;2023-04-25T17:57:32;8.95;;;5.30;;
64667;SDS011;51077;42.716;23.344;2023-04-25T17:59:57;10.13;;;4.37;;
64667;SDS011;51077;42.716;23.344;2023-04-25T18:02:23;6.73;;;3.90;;
64667;SDS011;51077;42.716;23.344;2023-04-25T18:04:49;7.30;;;3.65;;